sensor_id;sensor_type;location;lat;lon;timestamp;P1;P2;P0
67892;PMS7003;54688;52.376;16.744;2023-04-01T00:00:19;6;5;
67892;PMS7003;54688;52.376;16.744;2023-04-01T00:03:49;11;7;
67892;PMS7003;54688;52.376;16.744;2023-04-01T00:06:51;7;5;
67892;PMS7003;54688;52.376;16.744;2023-04-01T00:09:53;8;8;
67892;PMS7003;54688;52.376;16.744;2023-04-01T00:12:55;7;7;
67892;PMS7003;54688;52.376;16.744;2023-04-01T00:15:57;4;4;
67892;PMS7003;54688;52.376;16.744;2023-04-01T00:18:59;4;4;
67892;PMS7003;54688;52.376;16.744;2023-04-01T00:22:02;9;5;
67892;PMS7003;54688;52.376;16.744;2023-04-01T00:25:04;7;5;
67892;PMS7003;54688;52.376;16.744;2023-04-01T00:28:07;8;6;
67892;PMS7003;54688;52.376;16.744;2023-04-01T00:31:10;8;5;
67892;PMS7003;54688;52.376;16.744;2023-04-01T00:34:13;8;6;
67892;PMS7003;54688;52.376;16.744;2023-04-01T00:37:16;11;10;
67892;PMS7003;54688;52.376;16.744;2023-04-01T00:40:24;17;12;
67892;PMS7003;54688;52.376;16.744;2023-04-01T00:43:26;16;12;
67892;PMS7003;54688;52.376;16.744;2023-04-01T00:46:28;16;13;
67892;PMS7003;54688;52.376;16.744;2023-04-01T00:52:30;16;14;
67892;PMS7003;54688;52.376;16.744;2023-04-01T00:55:35;18;18;
67892;PMS7003;54688;52.376;16.744;2023-04-01T00:58:41;20;18;
67892;PMS7003;54688;52.376;16.744;2023-04-01T01:01:45;23;19;
67892;PMS7003;54688;52.376;16.744;2023-04-01T01:04:48;17;13;
67892;PMS7003;54688;52.376;16.744;2023-04-01T01:07:58;19;14;
67892;PMS7003;54688;52.376;16.744;2023-04-01T01:11:05;28;23;
67892;PMS7003;54688;52.376;16.744;2023-04-01T01:14:20;20;16;
67892;PMS7003;54688;52.376;16.744;2023-04-01T01:17:33;23;17;
67892;PMS7003;54688;52.376;16.744;2023-04-01T01:20:50;24;20;
67892;PMS7003;54688;52.376;16.744;2023-04-01T01:24:12;20;16;
67892;PMS7003;54688;52.376;16.744;2023-04-01T01:27:16;17;16;
67892;PMS7003;54688;52.376;16.744;2023-04-01T01:30:28;24;17;
67892;PMS7003;54688;52.376;16.744;2023-04-01T01:33:44;25;20;
67892;PMS7003;54688;52.376;16.744;2023-04-01T01:36:53;22;17;
67892;PMS7003;54688;52.376;16.744;2023-04-01T01:39:59;23;16;
67892;PMS7003;54688;52.376;16.744;2023-04-01T01:43:05;23;17;
67892;PMS7003;54688;52.376;16.744;2023-04-01T01:46:11;15;13;
67892;PMS7003;54688;52.376;16.744;2023-04-01T01:49:14;20;16;
67892;PMS7003;54688;52.376;16.744;2023-04-01T01:52:17;21;15;
67892;PMS7003;54688;52.376;16.744;2023-04-01T01:55:26;19;14;
67892;PMS7003;54688;52.376;16.744;2023-04-01T01:58:31;18;15;
67892;PMS7003;54688;52.376;16.744;2023-04-01T02:01:37;17;15;
67892;PMS7003;54688;52.376;16.744;2023-04-01T02:04:43;21;14;
67892;PMS7003;54688;52.376;16.744;2023-04-01T02:10:51;14;14;
67892;PMS7003;54688;52.376;16.744;2023-04-01T02:14:01;18;16;
67892;PMS7003;54688;52.376;16.744;2023-04-01T02:17:07;13;10;
67892;PMS7003;54688;52.376;16.744;2023-04-01T02:20:15;17;12;
67892;PMS7003;54688;52.376;16.744;2023-04-01T02:23:17;13;12;
67892;PMS7003;54688;52.376;16.744;2023-04-01T02:26:20;14;14;
67892;PMS7003;54688;52.376;16.744;2023-04-01T02:29:24;16;14;
67892;PMS7003;54688;52.376;16.744;2023-04-01T02:32:27;22;17;
67892;PMS7003;54688;52.376;16.744;2023-04-01T02:35:33;13;12;
67892;PMS7003;54688;52.376;16.744;2023-04-01T02:38:36;16;13;
67892;PMS7003;54688;52.376;16.744;2023-04-01T02:41:39;11;11;
67892;PMS7003;54688;52.376;16.744;2023-04-01T02:44:41;18;13;
67892;PMS7003;54688;52.376;16.744;2023-04-01T02:47:43;17;13;
67892;PMS7003;54688;52.376;16.744;2023-04-01T02:50:45;17;14;
67892;PMS7003;54688;52.376;16.744;2023-04-01T02:53:47;15;13;
67892;PMS7003;54688;52.376;16.744;2023-04-01T02:56:49;19;19;
67892;PMS7003;54688;52.376;16.744;2023-04-01T02:59:51;24;21;
67892;PMS7003;54688;52.376;16.744;2023-04-01T03:02:53;18;15;
67892;PMS7003;54688;52.376;16.744;2023-04-01T03:05:56;24;21;
67892;PMS7003;54688;52.376;16.744;2023-04-01T03:08:58;19;14;
67892;PMS7003;54688;52.376;16.744;2023-04-01T03:12:00;19;18;
67892;PMS7003;54688;52.376;16.744;2023-04-01T03:15:03;21;19;
67892;PMS7003;54688;52.376;16.744;2023-04-01T03:18:06;16;15;
67892;PMS7003;54688;52.376;16.744;2023-04-01T03:21:16;22;19;
67892;PMS7003;54688;52.376;16.744;2023-04-01T03:24:19;19;15;
67892;PMS7003;54688;52.376;16.744;2023-04-01T03:27:22;21;16;
67892;PMS7003;54688;52.376;16.744;2023-04-01T03:30:24;24;20;
67892;PMS7003;54688;52.376;16.744;2023-04-01T03:33:26;20;16;
67892;PMS7003;54688;52.376;16.744;2023-04-01T03:36:28;26;23;
67892;PMS7003;54688;52.376;16.744;2023-04-01T03:39:31;24;19;
67892;PMS7003;54688;52.376;16.744;2023-04-01T03:42:33;26;17;
67892;PMS7003;54688;52.376;16.744;2023-04-01T03:45:35;19;14;
67892;PMS7003;54688;52.376;16.744;2023-04-01T03:48:38;16;15;
67892;PMS7003;54688;52.376;16.744;2023-04-01T03:51:42;9;9;
67892;PMS7003;54688;52.376;16.744;2023-04-01T03:54:45;11;11;
67892;PMS7003;54688;52.376;16.744;2023-04-01T03:57:46;17;13;
67892;PMS7003;54688;52.376;16.744;2023-04-01T04:00:48;16;13;
67892;PMS7003;54688;52.376;16.744;2023-04-01T04:03:51;19;17;
67892;PMS7003;54688;52.376;16.744;2023-04-01T04:06:54;13;12;
67892;PMS7003;54688;52.376;16.744;2023-04-01T04:09:56;12;10;
67892;PMS7003;54688;52.376;16.744;2023-04-01T04:12:58;13;12;
67892;PMS7003;54688;52.376;16.744;2023-04-01T04:16:00;12;11;
67892;PMS7003;54688;52.376;16.744;2023-04-01T04:19:03;10;8;
67892;PMS7003;54688;52.376;16.744;2023-04-01T04:22:05;9;9;
67892;PMS7003;54688;52.376;16.744;2023-04-01T04:25:08;8;8;
67892;PMS7003;54688;52.376;16.744;2023-04-01T04:28:10;10;10;
67892;PMS7003;54688;52.376;16.744;2023-04-01T04:31:18;8;8;
67892;PMS7003;54688;52.376;16.744;2023-04-01T04:34:20;7;6;
67892;PMS7003;54688;52.376;16.744;2023-04-01T04:37:22;11;8;
67892;PMS7003;54688;52.376;16.744;2023-04-01T04:40:24;9;7;
67892;PMS7003;54688;52.376;16.744;2023-04-01T04:43:26;12;11;
67892;PMS7003;54688;52.376;16.744;2023-04-01T04:46:28;11;9;
67892;PMS7003;54688;52.376;16.744;2023-04-01T04:49:30;10;7;
67892;PMS7003;54688;52.376;16.744;2023-04-01T04:52:32;12;10;
67892;PMS7003;54688;52.376;16.744;2023-04-01T04:55:34;9;8;
67892;PMS7003;54688;52.376;16.744;2023-04-01T04:58:38;8;7;
67892;PMS7003;54688;52.376;16.744;2023-04-01T05:01:41;7;7;
67892;PMS7003;54688;52.376;16.744;2023-04-01T05:04:43;11;8;
67892;PMS7003;54688;52.376;16.744;2023-04-01T05:07:46;9;8;
67892;PMS7003;54688;52.376;16.744;2023-04-01T05:10:48;7;6;
67892;PMS7003;54688;52.376;16.744;2023-04-01T05:13:50;11;10;
67892;PMS7003;54688;52.376;16.744;2023-04-01T05:16:52;9;9;
67892;PMS7003;54688;52.376;16.744;2023-04-01T05:19:54;9;8;
67892;PMS7003;54688;52.376;16.744;2023-04-01T05:22:56;12;9;
67892;PMS7003;54688;52.376;16.744;2023-04-01T05:25:58;9;8;
67892;PMS7003;54688;52.376;16.744;2023-04-01T05:29:01;12;9;
67892;PMS7003;54688;52.376;16.744;2023-04-01T05:32:02;10;7;
67892;PMS7003;54688;52.376;16.744;2023-04-01T05:35:06;14;11;
67892;PMS7003;54688;52.376;16.744;2023-04-01T05:38:08;10;7;
67892;PMS7003;54688;52.376;16.744;2023-04-01T05:41:11;7;6;
67892;PMS7003;54688;52.376;16.744;2023-04-01T05:44:14;10;6;
67892;PMS7003;54688;52.376;16.744;2023-04-01T05:47:16;9;7;
67892;PMS7003;54688;52.376;16.744;2023-04-01T05:50:18;7;7;
67892;PMS7003;54688;52.376;16.744;2023-04-01T05:53:20;11;8;
67892;PMS7003;54688;52.376;16.744;2023-04-01T05:56:23;9;9;
67892;PMS7003;54688;52.376;16.744;2023-04-01T05:59:25;10;8;
67892;PMS7003;54688;52.376;16.744;2023-04-01T06:02:27;6;5;
67892;PMS7003;54688;52.376;16.744;2023-04-01T06:05:39;11;6;
67892;PMS7003;54688;52.376;16.744;2023-04-01T06:08:42;10;6;
67892;PMS7003;54688;52.376;16.744;2023-04-01T06:11:54;7;7;
67892;PMS7003;54688;52.376;16.744;2023-04-01T06:15:10;7;6;
67892;PMS7003;54688;52.376;16.744;2023-04-01T06:18:39;9;7;
67892;PMS7003;54688;52.376;16.744;2023-04-01T06:21:56;9;6;
67892;PMS7003;54688;52.376;16.744;2023-04-01T06:25:18;7;5;
67892;PMS7003;54688;52.376;16.744;2023-04-01T06:28:41;9;8;
67892;PMS7003;54688;52.376;16.744;2023-04-01T06:31:57;6;6;
67892;PMS7003;54688;52.376;16.744;2023-04-01T06:35:17;11;7;
67892;PMS7003;54688;52.376;16.744;2023-04-01T06:38:39;7;7;
67892;PMS7003;54688;52.376;16.744;2023-04-01T06:41:58;14;11;
67892;PMS7003;54688;52.376;16.744;2023-04-01T06:45:18;13;10;
67892;PMS7003;54688;52.376;16.744;2023-04-01T06:48:38;9;8;
67892;PMS7003;54688;52.376;16.744;2023-04-01T06:51:47;12;9;
67892;PMS7003;54688;52.376;16.744;2023-04-01T06:54:55;10;9;
67892;PMS7003;54688;52.376;16.744;2023-04-01T06:58:05;8;8;
67892;PMS7003;54688;52.376;16.744;2023-04-01T07:01:13;15;9;
67892;PMS7003;54688;52.376;16.744;2023-04-01T07:04:18;9;9;
67892;PMS7003;54688;52.376;16.744;2023-04-01T07:07:28;12;9;
67892;PMS7003;54688;52.376;16.744;2023-04-01T07:10:35;10;8;
67892;PMS7003;54688;52.376;16.744;2023-04-01T07:13:47;12;9;
67892;PMS7003;54688;52.376;16.744;2023-04-01T07:16:54;12;10;
67892;PMS7003;54688;52.376;16.744;2023-04-01T07:20:02;13;12;
67892;PMS7003;54688;52.376;16.744;2023-04-01T07:23:07;7;7;
67892;PMS7003;54688;52.376;16.744;2023-04-01T07:26:15;11;9;
67892;PMS7003;54688;52.376;16.744;2023-04-01T07:29:18;10;10;
67892;PMS7003;54688;52.376;16.744;2023-04-01T07:32:27;13;10;
67892;PMS7003;54688;52.376;16.744;2023-04-01T07:35:36;6;6;
67892;PMS7003;54688;52.376;16.744;2023-04-01T07:41:44;9;8;
67892;PMS7003;54688;52.376;16.744;2023-04-01T07:44:54;9;8;
67892;PMS7003;54688;52.376;16.744;2023-04-01T07:48:11;6;5;
67892;PMS7003;54688;52.376;16.744;2023-04-01T07:51:18;9;8;
67892;PMS7003;54688;52.376;16.744;2023-04-01T07:54:26;7;7;
67892;PMS7003;54688;52.376;16.744;2023-04-01T07:57:36;8;8;
67892;PMS7003;54688;52.376;16.744;2023-04-01T08:00:45;8;6;
67892;PMS7003;54688;52.376;16.744;2023-04-01T08:04:03;9;9;
67892;PMS7003;54688;52.376;16.744;2023-04-01T08:07:11;9;7;
67892;PMS7003;54688;52.376;16.744;2023-04-01T08:10:20;11;8;
67892;PMS7003;54688;52.376;16.744;2023-04-01T08:13:31;12;10;
67892;PMS7003;54688;52.376;16.744;2023-04-01T08:16:40;8;7;
67892;PMS7003;54688;52.376;16.744;2023-04-01T08:19:56;10;8;
67892;PMS7003;54688;52.376;16.744;2023-04-01T08:23:00;9;7;
67892;PMS7003;54688;52.376;16.744;2023-04-01T08:26:10;7;7;
67892;PMS7003;54688;52.376;16.744;2023-04-01T08:29:16;12;8;
67892;PMS7003;54688;52.376;16.744;2023-04-01T08:32:22;8;7;
67892;PMS7003;54688;52.376;16.744;2023-04-01T08:35:31;13;9;
67892;PMS7003;54688;52.376;16.744;2023-04-01T08:38:41;9;9;
67892;PMS7003;54688;52.376;16.744;2023-04-01T08:42:31;12;10;
67892;PMS7003;54688;52.376;16.744;2023-04-01T08:45:45;15;9;
67892;PMS7003;54688;52.376;16.744;2023-04-01T08:49:01;18;15;
67892;PMS7003;54688;52.376;16.744;2023-04-01T08:52:42;11;11;
67892;PMS7003;54688;52.376;16.744;2023-04-01T08:56:03;14;7;
67892;PMS7003;54688;52.376;16.744;2023-04-01T08:59:17;11;11;
67892;PMS7003;54688;52.376;16.744;2023-04-01T09:05:53;7;6;
67892;PMS7003;54688;52.376;16.744;2023-04-01T09:09:21;8;6;
67892;PMS7003;54688;52.376;16.744;2023-04-01T09:12:37;8;5;
67892;PMS7003;54688;52.376;16.744;2023-04-01T09:16:59;12;8;
67892;PMS7003;54688;52.376;16.744;2023-04-01T09:20:17;9;7;
67892;PMS7003;54688;52.376;16.744;2023-04-01T09:23:33;7;6;
67892;PMS7003;54688;52.376;16.744;2023-04-01T09:26:52;13;7;
67892;PMS7003;54688;52.376;16.744;2023-04-01T09:30:20;9;7;
67892;PMS7003;54688;52.376;16.744;2023-04-01T09:35:39;8;8;
67892;PMS7003;54688;52.376;16.744;2023-04-01T09:38:55;13;10;
67892;PMS7003;54688;52.376;16.744;2023-04-01T09:42:13;13;7;
67892;PMS7003;54688;52.376;16.744;2023-04-01T09:45:24;9;8;
67892;PMS7003;54688;52.376;16.744;2023-04-01T09:48:42;12;10;
67892;PMS7003;54688;52.376;16.744;2023-04-01T09:51:55;10;7;
67892;PMS7003;54688;52.376;16.744;2023-04-01T09:57:27;14;9;
67892;PMS7003;54688;52.376;16.744;2023-04-01T10:00:49;8;8;
67892;PMS7003;54688;52.376;16.744;2023-04-01T10:05:11;14;10;
67892;PMS7003;54688;52.376;16.744;2023-04-01T10:08:41;15;11;
67892;PMS7003;54688;52.376;16.744;2023-04-01T10:12:05;11;10;
67892;PMS7003;54688;52.376;16.744;2023-04-01T10:15:27;12;9;
67892;PMS7003;54688;52.376;16.744;2023-04-01T10:18:51;14;11;
67892;PMS7003;54688;52.376;16.744;2023-04-01T10:22:42;14;11;
67892;PMS7003;54688;52.376;16.744;2023-04-01T10:26:06;15;12;
67892;PMS7003;54688;52.376;16.744;2023-04-01T10:29:32;15;13;
67892;PMS7003;54688;52.376;16.744;2023-04-01T10:32:49;16;14;
67892;PMS7003;54688;52.376;16.744;2023-04-01T10:36:11;16;14;
67892;PMS7003;54688;52.376;16.744;2023-04-01T10:39:33;18;14;
67892;PMS7003;54688;52.376;16.744;2023-04-01T10:43:09;18;16;
67892;PMS7003;54688;52.376;16.744;2023-04-01T10:46:31;18;15;
67892;PMS7003;54688;52.376;16.744;2023-04-01T10:49:44;24;17;
67892;PMS7003;54688;52.376;16.744;2023-04-01T10:54:09;18;13;
67892;PMS7003;54688;52.376;16.744;2023-04-01T10:57:33;19;15;
67892;PMS7003;54688;52.376;16.744;2023-04-01T11:01:03;24;19;
67892;PMS7003;54688;52.376;16.744;2023-04-01T11:04:40;20;16;
67892;PMS7003;54688;52.376;16.744;2023-04-01T11:08:04;21;16;
67892;PMS7003;54688;52.376;16.744;2023-04-01T11:11:36;25;19;
67892;PMS7003;54688;52.376;16.744;2023-04-01T11:15:07;28;21;
67892;PMS7003;54688;52.376;16.744;2023-04-01T11:18:35;20;18;
67892;PMS7003;54688;52.376;16.744;2023-04-01T11:22:01;24;19;
67892;PMS7003;54688;52.376;16.744;2023-04-01T11:25:18;22;16;
67892;PMS7003;54688;52.376;16.744;2023-04-01T11:28:35;18;13;
67892;PMS7003;54688;52.376;16.744;2023-04-01T11:31:47;20;14;
67892;PMS7003;54688;52.376;16.744;2023-04-01T11:35:01;16;13;
67892;PMS7003;54688;52.376;16.744;2023-04-01T11:38:19;22;17;
67892;PMS7003;54688;52.376;16.744;2023-04-01T11:41:33;22;17;
67892;PMS7003;54688;52.376;16.744;2023-04-01T11:44:42;22;18;
67892;PMS7003;54688;52.376;16.744;2023-04-01T11:47:54;17;15;
67892;PMS7003;54688;52.376;16.744;2023-04-01T11:52:11;22;19;
67892;PMS7003;54688;52.376;16.744;2023-04-01T11:55:24;25;21;
67892;PMS7003;54688;52.376;16.744;2023-04-01T11:58:41;31;26;
67892;PMS7003;54688;52.376;16.744;2023-04-01T12:01:55;27;23;
67892;PMS7003;54688;52.376;16.744;2023-04-01T12:05:12;29;24;
67892;PMS7003;54688;52.376;16.744;2023-04-01T12:08:24;29;25;
67892;PMS7003;54688;52.376;16.744;2023-04-01T12:11:34;28;25;
67892;PMS7003;54688;52.376;16.744;2023-04-01T12:14:43;20;16;
67892;PMS7003;54688;52.376;16.744;2023-04-01T12:17:51;17;15;
67892;PMS7003;54688;52.376;16.744;2023-04-01T12:20:57;26;18;
67892;PMS7003;54688;52.376;16.744;2023-04-01T12:24:18;22;16;
67892;PMS7003;54688;52.376;16.744;2023-04-01T12:27:31;23;18;
67892;PMS7003;54688;52.376;16.744;2023-04-01T12:30:42;23;22;
67892;PMS7003;54688;52.376;16.744;2023-04-01T12:33:53;19;18;
67892;PMS7003;54688;52.376;16.744;2023-04-01T12:37:06;24;20;
67892;PMS7003;54688;52.376;16.744;2023-04-01T12:40:24;21;19;
67892;PMS7003;54688;52.376;16.744;2023-04-01T12:46:32;16;16;
67892;PMS7003;54688;52.376;16.744;2023-04-01T12:49:52;15;13;
67892;PMS7003;54688;52.376;16.744;2023-04-01T12:53:12;16;13;
67892;PMS7003;54688;52.376;16.744;2023-04-01T12:56:19;13;12;
67892;PMS7003;54688;52.376;16.744;2023-04-01T12:59:40;17;11;
67892;PMS7003;54688;52.376;16.744;2023-04-01T13:02:59;18;12;
67892;PMS7003;54688;52.376;16.744;2023-04-01T13:07:18;12;11;
67892;PMS7003;54688;52.376;16.744;2023-04-01T13:10:35;16;11;
67892;PMS7003;54688;52.376;16.744;2023-04-01T13:13:51;11;9;
67892;PMS7003;54688;52.376;16.744;2023-04-01T13:16:58;10;7;
67892;PMS7003;54688;52.376;16.744;2023-04-01T13:20:12;12;10;
67892;PMS7003;54688;52.376;16.744;2023-04-01T13:23:28;15;13;
67892;PMS7003;54688;52.376;16.744;2023-04-01T13:26:38;17;14;
67892;PMS7003;54688;52.376;16.744;2023-04-01T13:29:44;14;14;
67892;PMS7003;54688;52.376;16.744;2023-04-01T13:32:54;25;20;
67892;PMS7003;54688;52.376;16.744;2023-04-01T13:36:08;22;16;
67892;PMS7003;54688;52.376;16.744;2023-04-01T13:39:22;19;16;
67892;PMS7003;54688;52.376;16.744;2023-04-01T13:42:30;17;15;
67892;PMS7003;54688;52.376;16.744;2023-04-01T13:45:47;17;15;
67892;PMS7003;54688;52.376;16.744;2023-04-01T13:49:05;17;16;
67892;PMS7003;54688;52.376;16.744;2023-04-01T13:52:30;18;16;
67892;PMS7003;54688;52.376;16.744;2023-04-01T13:55:49;18;15;
67892;PMS7003;54688;52.376;16.744;2023-04-01T13:59:40;14;13;
67892;PMS7003;54688;52.376;16.744;2023-04-01T14:02:57;14;14;
67892;PMS7003;54688;52.376;16.744;2023-04-01T14:06:11;20;16;
67892;PMS7003;54688;52.376;16.744;2023-04-01T14:09:27;29;23;
67892;PMS7003;54688;52.376;16.744;2023-04-01T14:12:39;25;20;
67892;PMS7003;54688;52.376;16.744;2023-04-01T14:15:55;25;23;
67892;PMS7003;54688;52.376;16.744;2023-04-01T14:19:11;21;19;
67892;PMS7003;54688;52.376;16.744;2023-04-01T14:22:23;17;15;
67892;PMS7003;54688;52.376;16.744;2023-04-01T14:25:41;21;17;
67892;PMS7003;54688;52.376;16.744;2023-04-01T14:28:53;12;10;
67892;PMS7003;54688;52.376;16.744;2023-04-01T14:32:03;10;7;
67892;PMS7003;54688;52.376;16.744;2023-04-01T14:35:22;12;11;
67892;PMS7003;54688;52.376;16.744;2023-04-01T14:38:35;13;10;
67892;PMS7003;54688;52.376;16.744;2023-04-01T14:41:46;13;11;
67892;PMS7003;54688;52.376;16.744;2023-04-01T14:44:57;19;18;
67892;PMS7003;54688;52.376;16.744;2023-04-01T14:48:08;17;17;
67892;PMS7003;54688;52.376;16.744;2023-04-01T14:51:22;20;20;
67892;PMS7003;54688;52.376;16.744;2023-04-01T14:54:31;20;18;
67892;PMS7003;54688;52.376;16.744;2023-04-01T14:57:34;20;20;
67892;PMS7003;54688;52.376;16.744;2023-04-01T15:00:45;12;12;
67892;PMS7003;54688;52.376;16.744;2023-04-01T15:03:55;12;11;
67892;PMS7003;54688;52.376;16.744;2023-04-01T15:07:18;17;15;
67892;PMS7003;54688;52.376;16.744;2023-04-01T15:10:40;18;17;
67892;PMS7003;54688;52.376;16.744;2023-04-01T15:13:54;18;13;
67892;PMS7003;54688;52.376;16.744;2023-04-01T15:17:12;19;17;
67892;PMS7003;54688;52.376;16.744;2023-04-01T15:20:31;15;13;
67892;PMS7003;54688;52.376;16.744;2023-04-01T15:23:45;12;12;
67892;PMS7003;54688;52.376;16.744;2023-04-01T15:27:02;14;11;
67892;PMS7003;54688;52.376;16.744;2023-04-01T15:30:20;18;17;
67892;PMS7003;54688;52.376;16.744;2023-04-01T15:33:34;15;15;
67892;PMS7003;54688;52.376;16.744;2023-04-01T15:36:43;15;12;
67892;PMS7003;54688;52.376;16.744;2023-04-01T15:39:54;19;16;
67892;PMS7003;54688;52.376;16.744;2023-04-01T15:43:07;15;10;
67892;PMS7003;54688;52.376;16.744;2023-04-01T15:46:23;11;11;
67892;PMS7003;54688;52.376;16.744;2023-04-01T15:49:34;18;14;
67892;PMS7003;54688;52.376;16.744;2023-04-01T15:52:41;13;13;
67892;PMS7003;54688;52.376;16.744;2023-04-01T15:55:48;15;14;
67892;PMS7003;54688;52.376;16.744;2023-04-01T15:58:59;15;11;
67892;PMS7003;54688;52.376;16.744;2023-04-01T16:02:13;19;12;
67892;PMS7003;54688;52.376;16.744;2023-04-01T16:05:26;14;14;
67892;PMS7003;54688;52.376;16.744;2023-04-01T16:08:43;12;12;
67892;PMS7003;54688;52.376;16.744;2023-04-01T16:11:53;12;12;
67892;PMS7003;54688;52.376;16.744;2023-04-01T16:15:10;15;14;
67892;PMS7003;54688;52.376;16.744;2023-04-01T16:18:30;18;14;
67892;PMS7003;54688;52.376;16.744;2023-04-01T16:21:37;18;17;
67892;PMS7003;54688;52.376;16.744;2023-04-01T16:27:44;17;15;
67892;PMS7003;54688;52.376;16.744;2023-04-01T16:30:55;18;12;
67892;PMS7003;54688;52.376;16.744;2023-04-01T16:34:01;14;14;
67892;PMS7003;54688;52.376;16.744;2023-04-01T16:37:10;15;13;
67892;PMS7003;54688;52.376;16.744;2023-04-01T16:40:20;11;11;
67892;PMS7003;54688;52.376;16.744;2023-04-01T16:43:28;18;16;
67892;PMS7003;54688;52.376;16.744;2023-04-01T16:46:34;14;13;
67892;PMS7003;54688;52.376;16.744;2023-04-01T16:49:41;16;14;
67892;PMS7003;54688;52.376;16.744;2023-04-01T16:52:55;18;16;
67892;PMS7003;54688;52.376;16.744;2023-04-01T16:56:07;15;14;
67892;PMS7003;54688;52.376;16.744;2023-04-01T16:59:17;30;21;
67892;PMS7003;54688;52.376;16.744;2023-04-01T17:02:25;15;13;
67892;PMS7003;54688;52.376;16.744;2023-04-01T17:05:42;17;14;
67892;PMS7003;54688;52.376;16.744;2023-04-01T17:09:01;23;18;
67892;PMS7003;54688;52.376;16.744;2023-04-01T17:12:11;21;17;
67892;PMS7003;54688;52.376;16.744;2023-04-01T17:15:20;37;30;
67892;PMS7003;54688;52.376;16.744;2023-04-01T17:18:28;33;30;
67892;PMS7003;54688;52.376;16.744;2023-04-01T17:21:47;27;22;
67892;PMS7003;54688;52.376;16.744;2023-04-01T17:25:00;21;19;
67892;PMS7003;54688;52.376;16.744;2023-04-01T17:28:10;19;17;
67892;PMS7003;54688;52.376;16.744;2023-04-01T17:31:26;14;11;
67892;PMS7003;54688;52.376;16.744;2023-04-01T17:34:42;13;12;
67892;PMS7003;54688;52.376;16.744;2023-04-01T17:37:57;17;16;
67892;PMS7003;54688;52.376;16.744;2023-04-01T17:41:08;17;14;
67892;PMS7003;54688;52.376;16.744;2023-04-01T17:44:26;16;15;
67892;PMS7003;54688;52.376;16.744;2023-04-01T17:47:41;27;21;
67892;PMS7003;54688;52.376;16.744;2023-04-01T17:50:52;11;11;
67892;PMS7003;54688;52.376;16.744;2023-04-01T17:54:06;22;21;
67892;PMS7003;54688;52.376;16.744;2023-04-01T17:57:29;25;20;
67892;PMS7003;54688;52.376;16.744;2023-04-01T18:00:37;17;16;
67892;PMS7003;54688;52.376;16.744;2023-04-01T18:03:54;18;16;
67892;PMS7003;54688;52.376;16.744;2023-04-01T18:07:14;16;15;
67892;PMS7003;54688;52.376;16.744;2023-04-01T18:10:25;24;19;
67892;PMS7003;54688;52.376;16.744;2023-04-01T18:13:43;27;25;
67892;PMS7003;54688;52.376;16.744;2023-04-01T18:16:59;36;30;
67892;PMS7003;54688;52.376;16.744;2023-04-01T18:20:20;31;27;
67892;PMS7003;54688;52.376;16.744;2023-04-01T18:23:30;16;15;
67892;PMS7003;54688;52.376;16.744;2023-04-01T18:26:39;17;13;
67892;PMS7003;54688;52.376;16.744;2023-04-01T18:29:48;18;15;
67892;PMS7003;54688;52.376;16.744;2023-04-01T18:32:54;18;13;
67892;PMS7003;54688;52.376;16.744;2023-04-01T18:36:07;17;14;
67892;PMS7003;54688;52.376;16.744;2023-04-01T18:39:14;15;13;
67892;PMS7003;54688;52.376;16.744;2023-04-01T18:42:28;13;12;
67892;PMS7003;54688;52.376;16.744;2023-04-01T18:45:35;14;13;
67892;PMS7003;54688;52.376;16.744;2023-04-01T18:48:46;9;9;
67892;PMS7003;54688;52.376;16.744;2023-04-01T18:51:54;13;11;
67892;PMS7003;54688;52.376;16.744;2023-04-01T18:55:33;10;10;
67892;PMS7003;54688;52.376;16.744;2023-04-01T18:58:46;11;9;
67892;PMS7003;54688;52.376;16.744;2023-04-01T19:01:59;15;13;
67892;PMS7003;54688;52.376;16.744;2023-04-01T19:05:07;11;10;
67892;PMS7003;54688;52.376;16.744;2023-04-01T19:08:18;12;12;
67892;PMS7003;54688;52.376;16.744;2023-04-01T19:11:27;14;12;
67892;PMS7003;54688;52.376;16.744;2023-04-01T19:14:51;16;15;
67892;PMS7003;54688;52.376;16.744;2023-04-01T19:18:07;10;10;
67892;PMS7003;54688;52.376;16.744;2023-04-01T19:21:16;16;14;
67892;PMS7003;54688;52.376;16.744;2023-04-01T19:24:34;13;12;
67892;PMS7003;54688;52.376;16.744;2023-04-01T19:27:42;12;9;
67892;PMS7003;54688;52.376;16.744;2023-04-01T19:30:53;11;11;
67892;PMS7003;54688;52.376;16.744;2023-04-01T19:34:06;11;10;
67892;PMS7003;54688;52.376;16.744;2023-04-01T19:37:22;11;10;
67892;PMS7003;54688;52.376;16.744;2023-04-01T19:40:48;12;10;
67892;PMS7003;54688;52.376;16.744;2023-04-01T19:43:59;14;12;
67892;PMS7003;54688;52.376;16.744;2023-04-01T19:47:09;8;8;
67892;PMS7003;54688;52.376;16.744;2023-04-01T19:50:26;13;10;
67892;PMS7003;54688;52.376;16.744;2023-04-01T19:53:35;15;11;
67892;PMS7003;54688;52.376;16.744;2023-04-01T19:56:46;11;10;
67892;PMS7003;54688;52.376;16.744;2023-04-01T19:59:51;16;13;
67892;PMS7003;54688;52.376;16.744;2023-04-01T20:03:01;10;10;
67892;PMS7003;54688;52.376;16.744;2023-04-01T20:09:11;12;11;
67892;PMS7003;54688;52.376;16.744;2023-04-01T20:12:24;16;14;
67892;PMS7003;54688;52.376;16.744;2023-04-01T20:15:33;14;11;
67892;PMS7003;54688;52.376;16.744;2023-04-01T20:18:40;15;14;
67892;PMS7003;54688;52.376;16.744;2023-04-01T20:21:47;14;14;
67892;PMS7003;54688;52.376;16.744;2023-04-01T20:24:50;14;13;
67892;PMS7003;54688;52.376;16.744;2023-04-01T20:27:55;13;10;
67892;PMS7003;54688;52.376;16.744;2023-04-01T20:31:08;14;12;
67892;PMS7003;54688;52.376;16.744;2023-04-01T20:34:31;20;17;
67892;PMS7003;54688;52.376;16.744;2023-04-01T20:37:37;12;10;
67892;PMS7003;54688;52.376;16.744;2023-04-01T20:40:44;11;8;
67892;PMS7003;54688;52.376;16.744;2023-04-01T20:43:56;11;9;
67892;PMS7003;54688;52.376;16.744;2023-04-01T20:50:02;12;10;
67892;PMS7003;54688;52.376;16.744;2023-04-01T20:53:15;13;12;
67892;PMS7003;54688;52.376;16.744;2023-04-01T20:56:29;10;10;
67892;PMS7003;54688;52.376;16.744;2023-04-01T20:59:47;11;10;
67892;PMS7003;54688;52.376;16.744;2023-04-01T21:03:05;13;11;
67892;PMS7003;54688;52.376;16.744;2023-04-01T21:06:21;22;17;
67892;PMS7003;54688;52.376;16.744;2023-04-01T21:09:40;14;11;
67892;PMS7003;54688;52.376;16.744;2023-04-01T21:12:48;15;11;
67892;PMS7003;54688;52.376;16.744;2023-04-01T21:16:03;13;11;
67892;PMS7003;54688;52.376;16.744;2023-04-01T21:19:19;10;9;
67892;PMS7003;54688;52.376;16.744;2023-04-01T21:22:39;9;9;
67892;PMS7003;54688;52.376;16.744;2023-04-01T21:26:08;15;12;
67892;PMS7003;54688;52.376;16.744;2023-04-01T21:29:26;10;10;
67892;PMS7003;54688;52.376;16.744;2023-04-01T21:32:41;14;11;